Bookmark and Share
Track history (hours):
 

Mathilde Maersk

Last reported at 2014-Apr-09 06:19 UTC. Time now 2014-Apr-17 09:50 UTC.
Position N 01°14' E 103°28'.
Warning: this ship's position is 8 days out of date.

Length 367 m; draft 12.2 m.

Type: Ship (hazmat cat B). MMSI: 220597990.

NotesDate/timePositionNaut miles runAvg speedWind from/ knotsBaromVisibWave heightAir tempDewpointWater temp
2014-Apr-09 06:19N 01°14' E 103°28'8 9.8
2014-Apr-09 05:33N 01°20' E 103°33'1 0.8
2014-Apr-09 04:31N 01°20' E 103°33'0 0.0
2014-Apr-09 03:28N 01°20' E 103°33'0 0.0
2014-Apr-09 02:28N 01°20' E 103°33'0 0.0
2014-Apr-09 01:04N 01°20' E 103°33'0 0.0
2014-Apr-09 00:28N 01°20' E 103°33'0 0.0
2014-Apr-08 23:16N 01°20' E 103°33'0 0.0
2014-Apr-08 22:22N 01°20' E 103°33'0 0.0
2014-Apr-08 21:28N 01°20' E 103°33'0 0.0
2014-Apr-08 20:28N 01°20' E 103°33'0 0.0
2014-Apr-08 19:10N 01°20' E 103°33'0 0.0
2014-Apr-08 18:19N 01°20' E 103°33'0 0.0
2014-Apr-08 17:28N 01°20' E 103°33'0 0.0
2014-Apr-08 16:19N 01°20' E 103°33'0 0.0
2014-Apr-08 15:31N 01°20' E 103°33'0 0.0
2014-Apr-08 14:19N 01°20' E 103°33'0 0.0
2014-Apr-08 13:31N 01°20' E 103°33'0 0.0
2014-Apr-08 12:31N 01°20' E 103°33'0 0.0
2014-Apr-08 11:28N 01°20' E 103°33'0 0.0
2014-Apr-08 10:19N 01°20' E 103°33'0 0.0
2014-Apr-08 09:25N 01°20' E 103°33'0 0.0
2014-Apr-08 07:31N 01°20' E 103°33'0 0.0
2014-Apr-08 06:31N 01°20' E 103°33'0 0.0
2014-Apr-08 04:10N 01°20' E 103°33'0 0.0
2014-Apr-08 03:22N 01°20' E 103°33'0 0.0
2014-Apr-08 01:31N 01°20' E 103°33'0 0.0
2014-Apr-08 00:10N 01°20' E 103°33'0 0.0
2014-Apr-07 23:10N 01°20' E 103°33'0 0.0
2014-Apr-07 22:22N 01°20' E 103°33'0 0.0
2014-Apr-07 21:22N 01°20' E 103°33'0 0.0
2014-Apr-07 20:16N 01°20' E 103°33'0 0.0
2014-Apr-07 17:28N 01°20' E 103°33'0 0.0
2014-Apr-07 16:16N 01°20' E 103°33'0 0.2
2014-Apr-07 15:33N 01°20' E 103°33'3 3.2
2014-Apr-07 14:33N 01°17' E 103°33'5 4.5
2014-Apr-07 13:33N 01°13' E 103°32'2 1.9
2014-Apr-07 12:33N 01°12' E 103°34'1616.1
2014-Apr-07 11:33N 01°12' E 103°50'  
2014-Apr-02 08:17N 22°07' E 113°59'5 7.3
2014-Apr-02 07:32N 22°06' E 113°53'4 4.1
2014-Apr-02 06:33N 22°09' E 113°50'9 9.3
2014-Apr-02 05:34N 22°18' E 113°48'1010.3
2014-Apr-02 04:33N 22°28' E 113°52'3 2.2
2014-Apr-02 03:12N 22°30' E 113°50'0 0.1
2014-Apr-02 02:24N 22°30' E 113°50'0 0.0
2014-Apr-02 01:24N 22°30' E 113°50'0 0.0
2014-Apr-02 00:24N 22°30' E 113°50'0 0.0
2014-Apr-01 23:29N 22°30' E 113°50'0 0.0
2014-Apr-01 22:30N 22°30' E 113°50'0 0.0
2014-Apr-01 21:30N 22°30' E 113°50'0 0.0
2014-Apr-01 20:30N 22°30' E 113°50'0 0.0
2014-Apr-01 19:30N 22°30' E 113°50'0 0.0
2014-Apr-01 18:24N 22°30' E 113°50'0 0.0
2014-Apr-01 16:24N 22°30' E 113°50'0 0.0
2014-Apr-01 15:12N 22°30' E 113°50'0 0.0
2014-Apr-01 14:18N 22°30' E 113°50'0 0.0
2014-Apr-01 13:12N 22°30' E 113°50'0 0.0
2014-Apr-01 12:17N 22°30' E 113°50'0 0.0
2014-Apr-01 11:12N 22°30' E 113°50'0 0.0
2014-Apr-01 10:30N 22°30' E 113°50'0 0.0
2014-Apr-01 09:30N 22°30' E 113°50'0 0.0
2014-Apr-01 08:24N 22°30' E 113°50'0 0.0
2014-Apr-01 07:30N 22°30' E 113°50'0 0.0
2014-Apr-01 06:23N 22°30' E 113°50'0 0.0
2014-Apr-01 05:30N 22°30' E 113°50'0 0.0
2014-Apr-01 04:23N 22°30' E 113°50'0 0.0
2014-Apr-01 03:30N 22°30' E 113°50'0 0.0
2014-Apr-01 02:24N 22°30' E 113°50'0 0.0
2014-Apr-01 01:30N 22°30' E 113°50'0 0.0
2014-Apr-01 00:30N 22°30' E 113°50'0 0.0
2014-Mar-31 23:30N 22°30' E 113°50'0 0.0
2014-Mar-31 22:30N 22°30' E 113°50'0 0.0
2014-Mar-31 21:30N 22°30' E 113°50'0 0.0
2014-Mar-31 20:30N 22°30' E 113°50'0 0.0
2014-Mar-31 19:24N 22°30' E 113°50'0 0.0
2014-Mar-31 18:30N 22°30' E 113°50'0 0.0
2014-Mar-31 17:30N 22°30' E 113°50'0 0.0
2014-Mar-31 16:18N 22°30' E 113°50'0 0.0
2014-Mar-31 15:30N 22°30' E 113°50'0 0.0
2014-Mar-31 13:18N 22°30' E 113°50'0 0.0
2014-Mar-31 12:12N 22°30' E 113°50'0 0.0
2014-Mar-31 11:24N 22°30' E 113°50'0 0.0
2014-Mar-31 10:30N 22°30' E 113°50'0 0.0
2014-Mar-31 09:24N 22°30' E 113°50'0 0.0
2014-Mar-31 08:24N 22°30' E 113°50'0 0.0
2014-Mar-31 07:30N 22°30' E 113°50'0 0.0
2014-Mar-31 06:24N 22°30' E 113°50'0 0.0
2014-Mar-31 04:30N 22°30' E 113°50'0 0.0
2014-Mar-31 03:18N 22°30' E 113°50'0 0.0
2014-Mar-31 02:24N 22°30' E 113°50'0 0.0
2014-Mar-31 01:29N 22°30' E 113°50'0 0.0
2014-Mar-31 00:30N 22°30' E 113°50'0 0.0
2014-Mar-30 16:24N 22°30' E 113°50'0 0.0
2014-Mar-30 15:30N 22°30' E 113°50'0 0.0
2014-Mar-30 14:24N 22°30' E 113°50'0 0.0
2014-Mar-30 13:24N 22°30' E 113°50'0 0.0
2014-Mar-30 10:23N 22°30' E 113°50'0 0.0
2014-Mar-30 09:30N 22°30' E 113°50'0 0.0
2014-Mar-30 08:30N 22°30' E 113°50'0 0.0
2014-Mar-30 07:30N 22°30' E 113°50'0 0.0
2014-Mar-30 06:30N 22°30' E 113°50'  

Dump ship's entire track history

sailing weather and tide predictions

Mathilde Maersk — OUJS2 — position and weather